Sandusky, Ohio
Current Conditions -  °F | °C
As of 2:13 PM on Thursday 18 Dec 2014 (Local Time) from KPCW Reporting Station
Overcast Overcast  
Wind Chill: 26°   Ceiling: 2500
Heat Index: 34°   Visibility: 10mi
Dew Point: 27°   Wind: 9mph
Humidity: 75%   Direction: 250°WSW
Pressure: 30.16"   Gusts: NA
Location:  41.45°N, 82.71°W
Report Text: KPCW 181913Z AUTO 25008KT 10SM FEW018 OVC025 01/M03 A3016 RMK AO2 $
Loading
Personal Weather Stations






























Interactive Weather Map New forecast layout! Learn more

10-Day Weather Forecast

Advertisements
Track Severe Weather on mobile